sensor_id;sensor_type;location;lat;lon;timestamp;temperature;humidity
30764;DHT22;17497;51.476;7.770;2022-11-23T00:01:26;8.10;99.90
30764;DHT22;17497;51.476;7.770;2022-11-23T00:03:55;8.10;99.90
30764;DHT22;17497;51.476;7.770;2022-11-23T00:06:23;8.10;99.90
30764;DHT22;17497;51.476;7.770;2022-11-23T00:08:51;8.00;99.90
30764;DHT22;17497;51.476;7.770;2022-11-23T00:11:19;8.10;99.90
30764;DHT22;17497;51.476;7.770;2022-11-23T00:13:46;8.00;99.90
30764;DHT22;17497;51.476;7.770;2022-11-23T00:16:18;8.00;99.90
30764;DHT22;17497;51.476;7.770;2022-11-23T00:18:44;8.10;99.90
30764;DHT22;17497;51.476;7.770;2022-11-23T00:21:13;8.10;99.90
30764;DHT22;17497;51.476;7.770;2022-11-23T00:23:41;8.00;99.90
30764;DHT22;17497;51.476;7.770;2022-11-23T00:26:08;8.00;99.90
30764;DHT22;17497;51.476;7.770;2022-11-23T00:28:35;8.00;99.90
30764;DHT22;17497;51.476;7.770;2022-11-23T00:31:09;8.10;99.90
30764;DHT22;17497;51.476;7.770;2022-11-23T00:33:37;8.10;99.90
30764;DHT22;17497;51.476;7.770;2022-11-23T00:36:06;8.10;99.90
30764;DHT22;17497;51.476;7.770;2022-11-23T00:38:34;8.10;99.90
30764;DHT22;17497;51.476;7.770;2022-11-23T00:41:03;8.10;99.90
30764;DHT22;17497;51.476;7.770;2022-11-23T00:43:30;8.10;99.90
30764;DHT22;17497;51.476;7.770;2022-11-23T00:48:31;8.20;99.90
30764;DHT22;17497;51.476;7.770;2022-11-23T00:51:00;8.20;99.90
30764;DHT22;17497;51.476;7.770;2022-11-23T00:53:27;8.20;99.90
30764;DHT22;17497;51.476;7.770;2022-11-23T00:55:55;8.20;99.90
30764;DHT22;17497;51.476;7.770;2022-11-23T00:58:23;8.20;99.90
30764;DHT22;17497;51.476;7.770;2022-11-23T01:03:31;8.20;99.90
30764;DHT22;17497;51.476;7.770;2022-11-23T01:06:03;8.20;99.90
30764;DHT22;17497;51.476;7.770;2022-11-23T01:08:30;8.20;99.90
30764;DHT22;17497;51.476;7.770;2022-11-23T01:11:05;8.10;99.90
30764;DHT22;17497;51.476;7.770;2022-11-23T01:13:33;8.10;99.90
30764;DHT22;17497;51.476;7.770;2022-11-23T01:16:00;8.20;99.90
30764;DHT22;17497;51.476;7.770;2022-11-23T01:18:27;8.20;99.90
30764;DHT22;17497;51.476;7.770;2022-11-23T01:20:53;8.20;99.90
30764;DHT22;17497;51.476;7.770;2022-11-23T01:23:20;8.20;99.90
30764;DHT22;17497;51.476;7.770;2022-11-23T01:25:47;8.20;99.90
30764;DHT22;17497;51.476;7.770;2022-11-23T01:28:19;8.20;99.90
30764;DHT22;17497;51.476;7.770;2022-11-23T01:30:46;8.10;99.90
30764;DHT22;17497;51.476;7.770;2022-11-23T01:33:13;8.10;99.90
30764;DHT22;17497;51.476;7.770;2022-11-23T01:35:39;8.10;99.90
30764;DHT22;17497;51.476;7.770;2022-11-23T01:38:06;8.10;99.90
30764;DHT22;17497;51.476;7.770;2022-11-23T01:40:40;8.20;99.90
30764;DHT22;17497;51.476;7.770;2022-11-23T01:43:14;8.20;99.90
30764;DHT22;17497;51.476;7.770;2022-11-23T01:45:42;8.10;99.90
30764;DHT22;17497;51.476;7.770;2022-11-23T01:48:15;8.10;99.90
30764;DHT22;17497;51.476;7.770;2022-11-23T01:50:46;8.10;99.90
30764;DHT22;17497;51.476;7.770;2022-11-23T01:53:14;8.10;99.90
30764;DHT22;17497;51.476;7.770;2022-11-23T01:55:43;8.00;99.90
30764;DHT22;17497;51.476;7.770;2022-11-23T01:58:13;8.00;99.90
30764;DHT22;17497;51.476;7.770;2022-11-23T02:00:41;8.10;99.90
30764;DHT22;17497;51.476;7.770;2022-11-23T02:03:08;8.10;99.90
30764;DHT22;17497;51.476;7.770;2022-11-23T02:05:42;8.10;99.90
30764;DHT22;17497;51.476;7.770;2022-11-23T02:08:11;8.10;99.90
30764;DHT22;17497;51.476;7.770;2022-11-23T02:10:38;8.10;99.90
30764;DHT22;17497;51.476;7.770;2022-11-23T02:13:07;8.20;99.90
30764;DHT22;17497;51.476;7.770;2022-11-23T02:15:35;8.20;99.90
30764;DHT22;17497;51.476;7.770;2022-11-23T02:18:05;8.20;99.90
30764;DHT22;17497;51.476;7.770;2022-11-23T02:20:32;8.20;99.90
30764;DHT22;17497;51.476;7.770;2022-11-23T02:23:29;8.20;99.90
30764;DHT22;17497;51.476;7.770;2022-11-23T02:28:42;8.30;99.90
30764;DHT22;17497;51.476;7.770;2022-11-23T02:31:09;8.30;99.90
30764;DHT22;17497;51.476;7.770;2022-11-23T02:33:37;8.30;99.90
30764;DHT22;17497;51.476;7.770;2022-11-23T02:38:54;8.30;99.90
30764;DHT22;17497;51.476;7.770;2022-11-23T02:41:22;8.40;99.90
30764;DHT22;17497;51.476;7.770;2022-11-23T02:43:51;8.40;99.90
30764;DHT22;17497;51.476;7.770;2022-11-23T02:46:19;8.30;99.90
30764;DHT22;17497;51.476;7.770;2022-11-23T02:48:46;8.40;99.90
30764;DHT22;17497;51.476;7.770;2022-11-23T02:51:13;8.40;99.90
30764;DHT22;17497;51.476;7.770;2022-11-23T02:53:40;8.40;99.90
30764;DHT22;17497;51.476;7.770;2022-11-23T02:56:06;8.30;99.90
30764;DHT22;17497;51.476;7.770;2022-11-23T02:58:33;8.30;99.90
30764;DHT22;17497;51.476;7.770;2022-11-23T03:01:00;8.30;99.90
30764;DHT22;17497;51.476;7.770;2022-11-23T03:03:27;8.30;99.90
30764;DHT22;17497;51.476;7.770;2022-11-23T03:05:53;8.30;99.90
30764;DHT22;17497;51.476;7.770;2022-11-23T03:08:20;8.30;99.90
30764;DHT22;17497;51.476;7.770;2022-11-23T03:10:47;8.30;99.90
30764;DHT22;17497;51.476;7.770;2022-11-23T03:13:13;8.30;99.90
30764;DHT22;17497;51.476;7.770;2022-11-23T03:15:40;8.30;99.90
30764;DHT22;17497;51.476;7.770;2022-11-23T03:18:07;8.30;99.90
30764;DHT22;17497;51.476;7.770;2022-11-23T03:20:33;8.20;99.90
30764;DHT22;17497;51.476;7.770;2022-11-23T03:23:00;8.20;99.90
30764;DHT22;17497;51.476;7.770;2022-11-23T03:25:27;8.10;99.90
30764;DHT22;17497;51.476;7.770;2022-11-23T03:27:53;8.10;99.90
30764;DHT22;17497;51.476;7.770;2022-11-23T03:30:20;8.10;99.90
30764;DHT22;17497;51.476;7.770;2022-11-23T03:32:47;8.10;99.90
30764;DHT22;17497;51.476;7.770;2022-11-23T03:35:13;8.10;99.90
30764;DHT22;17497;51.476;7.770;2022-11-23T03:37:40;8.10;99.90
30764;DHT22;17497;51.476;7.770;2022-11-23T03:40:08;8.00;99.90
30764;DHT22;17497;51.476;7.770;2022-11-23T03:42:35;8.00;99.90
30764;DHT22;17497;51.476;7.770;2022-11-23T03:45:01;7.90;99.90
30764;DHT22;17497;51.476;7.770;2022-11-23T03:47:28;7.90;99.90
30764;DHT22;17497;51.476;7.770;2022-11-23T03:49:55;7.80;99.90
30764;DHT22;17497;51.476;7.770;2022-11-23T03:52:21;7.80;99.90
30764;DHT22;17497;51.476;7.770;2022-11-23T03:54:48;7.80;99.90
30764;DHT22;17497;51.476;7.770;2022-11-23T03:57:15;7.90;99.90
30764;DHT22;17497;51.476;7.770;2022-11-23T03:59:41;7.90;99.90
30764;DHT22;17497;51.476;7.770;2022-11-23T04:02:08;7.90;99.90
30764;DHT22;17497;51.476;7.770;2022-11-23T04:04:35;7.90;99.90
30764;DHT22;17497;51.476;7.770;2022-11-23T04:07:02;7.90;99.90
30764;DHT22;17497;51.476;7.770;2022-11-23T04:09:28;7.90;99.90
30764;DHT22;17497;51.476;7.770;2022-11-23T04:11:56;8.00;99.90
30764;DHT22;17497;51.476;7.770;2022-11-23T04:14:22;8.00;99.90
30764;DHT22;17497;51.476;7.770;2022-11-23T04:16:49;8.00;99.90
30764;DHT22;17497;51.476;7.770;2022-11-23T04:19:16;8.00;99.90
30764;DHT22;17497;51.476;7.770;2022-11-23T04:21:42;8.00;99.90
30764;DHT22;17497;51.476;7.770;2022-11-23T04:24:09;8.10;99.90
30764;DHT22;17497;51.476;7.770;2022-11-23T04:26:36;8.10;99.90
30764;DHT22;17497;51.476;7.770;2022-11-23T04:29:03;8.20;99.90
30764;DHT22;17497;51.476;7.770;2022-11-23T04:31:29;8.20;99.90
30764;DHT22;17497;51.476;7.770;2022-11-23T04:33:56;8.20;99.90
30764;DHT22;17497;51.476;7.770;2022-11-23T04:36:23;8.20;99.90
30764;DHT22;17497;51.476;7.770;2022-11-23T04:38:50;8.20;99.90
30764;DHT22;17497;51.476;7.770;2022-11-23T04:41:16;8.10;99.90
30764;DHT22;17497;51.476;7.770;2022-11-23T04:43:43;8.10;99.90
30764;DHT22;17497;51.476;7.770;2022-11-23T04:46:11;8.10;99.90
30764;DHT22;17497;51.476;7.770;2022-11-23T04:48:37;8.10;99.90
30764;DHT22;17497;51.476;7.770;2022-11-23T04:51:04;8.00;99.90
30764;DHT22;17497;51.476;7.770;2022-11-23T04:53:31;8.00;99.90
30764;DHT22;17497;51.476;7.770;2022-11-23T04:55:58;7.90;99.90
30764;DHT22;17497;51.476;7.770;2022-11-23T04:58:25;7.90;99.90
30764;DHT22;17497;51.476;7.770;2022-11-23T05:00:57;7.90;99.90
30764;DHT22;17497;51.476;7.770;2022-11-23T05:03:24;7.90;99.90
30764;DHT22;17497;51.476;7.770;2022-11-23T05:05:51;7.80;99.90
30764;DHT22;17497;51.476;7.770;2022-11-23T05:08:18;7.80;99.90
30764;DHT22;17497;51.476;7.770;2022-11-23T05:10:44;7.80;99.90
30764;DHT22;17497;51.476;7.770;2022-11-23T05:13:11;7.80;99.90
30764;DHT22;17497;51.476;7.770;2022-11-23T05:15:37;7.80;99.90
30764;DHT22;17497;51.476;7.770;2022-11-23T05:18:05;7.80;99.90
30764;DHT22;17497;51.476;7.770;2022-11-23T05:20:33;7.80;99.90
30764;DHT22;17497;51.476;7.770;2022-11-23T05:23:00;7.80;99.90
30764;DHT22;17497;51.476;7.770;2022-11-23T05:25:26;7.80;99.90
30764;DHT22;17497;51.476;7.770;2022-11-23T05:27:53;7.80;99.90
30764;DHT22;17497;51.476;7.770;2022-11-23T05:30:20;7.70;99.90
30764;DHT22;17497;51.476;7.770;2022-11-23T05:32:47;7.70;99.90
30764;DHT22;17497;51.476;7.770;2022-11-23T05:35:14;7.70;99.90
30764;DHT22;17497;51.476;7.770;2022-11-23T05:37:41;7.70;99.90
30764;DHT22;17497;51.476;7.770;2022-11-23T05:40:08;7.70;99.90
30764;DHT22;17497;51.476;7.770;2022-11-23T05:42:35;7.70;99.90
30764;DHT22;17497;51.476;7.770;2022-11-23T05:45:02;7.80;99.90
30764;DHT22;17497;51.476;7.770;2022-11-23T05:47:36;7.70;99.90
30764;DHT22;17497;51.476;7.770;2022-11-23T05:50:04;7.80;99.90
30764;DHT22;17497;51.476;7.770;2022-11-23T05:52:30;7.80;99.90
30764;DHT22;17497;51.476;7.770;2022-11-23T05:54:57;7.80;99.90
30764;DHT22;17497;51.476;7.770;2022-11-23T05:57:24;7.80;99.90
30764;DHT22;17497;51.476;7.770;2022-11-23T05:59:51;7.80;99.90
30764;DHT22;17497;51.476;7.770;2022-11-23T06:02:17;7.80;99.90
30764;DHT22;17497;51.476;7.770;2022-11-23T06:04:44;7.80;99.90
30764;DHT22;17497;51.476;7.770;2022-11-23T06:07:11;7.90;99.90
30764;DHT22;17497;51.476;7.770;2022-11-23T06:09:37;7.90;99.90
30764;DHT22;17497;51.476;7.770;2022-11-23T06:12:04;7.90;99.90
30764;DHT22;17497;51.476;7.770;2022-11-23T06:14:31;7.90;99.90
30764;DHT22;17497;51.476;7.770;2022-11-23T06:16:58;7.90;99.90
30764;DHT22;17497;51.476;7.770;2022-11-23T06:19:24;7.90;99.90
30764;DHT22;17497;51.476;7.770;2022-11-23T06:21:51;8.00;99.90
30764;DHT22;17497;51.476;7.770;2022-11-23T06:24:18;8.00;99.90
30764;DHT22;17497;51.476;7.770;2022-11-23T06:26:45;7.90;99.90
30764;DHT22;17497;51.476;7.770;2022-11-23T06:29:11;7.90;99.90
30764;DHT22;17497;51.476;7.770;2022-11-23T06:31:38;7.90;99.90
30764;DHT22;17497;51.476;7.770;2022-11-23T06:34:05;7.90;99.90
30764;DHT22;17497;51.476;7.770;2022-11-23T06:36:31;7.90;99.90
30764;DHT22;17497;51.476;7.770;2022-11-23T06:38:58;7.90;99.90
30764;DHT22;17497;51.476;7.770;2022-11-23T06:41:25;7.90;99.90
30764;DHT22;17497;51.476;7.770;2022-11-23T06:43:57;7.90;99.90
30764;DHT22;17497;51.476;7.770;2022-11-23T06:46:24;7.90;99.90
30764;DHT22;17497;51.476;7.770;2022-11-23T06:48:51;7.90;99.90
30764;DHT22;17497;51.476;7.770;2022-11-23T06:51:17;7.90;99.90
30764;DHT22;17497;51.476;7.770;2022-11-23T06:53:44;7.90;99.90
30764;DHT22;17497;51.476;7.770;2022-11-23T06:56:11;7.90;99.90
30764;DHT22;17497;51.476;7.770;2022-11-23T06:58:37;7.90;99.90
30764;DHT22;17497;51.476;7.770;2022-11-23T07:01:06;7.90;99.90
30764;DHT22;17497;51.476;7.770;2022-11-23T07:03:34;7.90;99.90
30764;DHT22;17497;51.476;7.770;2022-11-23T07:06:05;7.90;99.90
30764;DHT22;17497;51.476;7.770;2022-11-23T07:08:33;7.90;99.90
30764;DHT22;17497;51.476;7.770;2022-11-23T07:11:03;7.90;99.90
30764;DHT22;17497;51.476;7.770;2022-11-23T07:13:32;8.00;99.90
30764;DHT22;17497;51.476;7.770;2022-11-23T07:15:58;8.00;99.90
30764;DHT22;17497;51.476;7.770;2022-11-23T07:18:25;8.00;99.90
30764;DHT22;17497;51.476;7.770;2022-11-23T07:20:52;8.10;99.90
30764;DHT22;17497;51.476;7.770;2022-11-23T07:23:19;8.00;99.90
30764;DHT22;17497;51.476;7.770;2022-11-23T07:25:46;8.10;99.90
30764;DHT22;17497;51.476;7.770;2022-11-23T07:28:12;8.10;99.90
30764;DHT22;17497;51.476;7.770;2022-11-23T07:30:39;8.10;99.90
30764;DHT22;17497;51.476;7.770;2022-11-23T07:33:08;8.20;99.90
30764;DHT22;17497;51.476;7.770;2022-11-23T07:35:37;8.10;99.90
30764;DHT22;17497;51.476;7.770;2022-11-23T07:38:05;8.10;99.90
30764;DHT22;17497;51.476;7.770;2022-11-23T07:40:36;8.20;99.90
30764;DHT22;17497;51.476;7.770;2022-11-23T07:43:04;8.20;99.90
30764;DHT22;17497;51.476;7.770;2022-11-23T07:45:32;8.20;99.90
30764;DHT22;17497;51.476;7.770;2022-11-23T07:48:00;8.20;99.90
30764;DHT22;17497;51.476;7.770;2022-11-23T07:50:27;8.30;99.90
30764;DHT22;17497;51.476;7.770;2022-11-23T07:52:55;8.30;99.90
30764;DHT22;17497;51.476;7.770;2022-11-23T07:55:22;8.40;99.90
30764;DHT22;17497;51.476;7.770;2022-11-23T07:57:53;8.40;99.90
30764;DHT22;17497;51.476;7.770;2022-11-23T08:00:21;8.50;99.90
30764;DHT22;17497;51.476;7.770;2022-11-23T08:02:48;8.60;99.90
30764;DHT22;17497;51.476;7.770;2022-11-23T08:05:35;8.60;99.90
30764;DHT22;17497;51.476;7.770;2022-11-23T08:08:02;8.70;99.90
30764;DHT22;17497;51.476;7.770;2022-11-23T08:10:30;8.60;99.90
30764;DHT22;17497;51.476;7.770;2022-11-23T08:12:58;8.70;99.90
30764;DHT22;17497;51.476;7.770;2022-11-23T08:15:25;8.60;99.90
30764;DHT22;17497;51.476;7.770;2022-11-23T08:17:56;8.60;99.90
30764;DHT22;17497;51.476;7.770;2022-11-23T08:20:24;8.60;99.90
30764;DHT22;17497;51.476;7.770;2022-11-23T08:22:51;8.60;99.90
30764;DHT22;17497;51.476;7.770;2022-11-23T08:25:23;8.50;99.90
30764;DHT22;17497;51.476;7.770;2022-11-23T08:27:54;8.50;99.90
30764;DHT22;17497;51.476;7.770;2022-11-23T08:30:21;8.50;99.90
30764;DHT22;17497;51.476;7.770;2022-11-23T08:32:48;8.50;99.90
30764;DHT22;17497;51.476;7.770;2022-11-23T08:35:15;8.50;99.90
30764;DHT22;17497;51.476;7.770;2022-11-23T08:37:42;8.50;99.90
30764;DHT22;17497;51.476;7.770;2022-11-23T08:40:09;8.60;99.90
30764;DHT22;17497;51.476;7.770;2022-11-23T08:42:36;8.60;99.90
30764;DHT22;17497;51.476;7.770;2022-11-23T08:45:03;8.70;99.90
30764;DHT22;17497;51.476;7.770;2022-11-23T08:47:31;8.80;99.90
30764;DHT22;17497;51.476;7.770;2022-11-23T08:49:58;8.80;99.90
30764;DHT22;17497;51.476;7.770;2022-11-23T08:52:25;8.80;99.90
30764;DHT22;17497;51.476;7.770;2022-11-23T08:54:52;8.80;99.90
30764;DHT22;17497;51.476;7.770;2022-11-23T08:57:19;8.90;99.90
30764;DHT22;17497;51.476;7.770;2022-11-23T08:59:45;9.00;99.90
30764;DHT22;17497;51.476;7.770;2022-11-23T09:02:13;9.10;99.90
30764;DHT22;17497;51.476;7.770;2022-11-23T09:04:40;9.10;99.90
30764;DHT22;17497;51.476;7.770;2022-11-23T09:07:07;9.10;99.90
30764;DHT22;17497;51.476;7.770;2022-11-23T09:09:34;9.00;99.90
30764;DHT22;17497;51.476;7.770;2022-11-23T09:12:00;9.10;99.90
30764;DHT22;17497;51.476;7.770;2022-11-23T09:14:27;9.20;99.90
30764;DHT22;17497;51.476;7.770;2022-11-23T09:16:54;9.40;99.90
30764;DHT22;17497;51.476;7.770;2022-11-23T09:19:21;9.60;99.90
30764;DHT22;17497;51.476;7.770;2022-11-23T09:21:48;9.60;99.90
30764;DHT22;17497;51.476;7.770;2022-11-23T09:24:15;9.60;99.90
30764;DHT22;17497;51.476;7.770;2022-11-23T09:26:42;9.50;99.90
30764;DHT22;17497;51.476;7.770;2022-11-23T09:29:09;9.60;99.90
30764;DHT22;17497;51.476;7.770;2022-11-23T09:31:36;9.70;99.90
30764;DHT22;17497;51.476;7.770;2022-11-23T09:34:04;9.90;99.90
30764;DHT22;17497;51.476;7.770;2022-11-23T09:36:30;10.00;99.90
30764;DHT22;17497;51.476;7.770;2022-11-23T09:38:58;10.20;99.90
30764;DHT22;17497;51.476;7.770;2022-11-23T09:52:34;10.60;99.90
30764;DHT22;17497;51.476;7.770;2022-11-23T09:55:55;10.70;99.90
30764;DHT22;17497;51.476;7.770;2022-11-23T09:58:00;10.70;99.90
30764;DHT22;17497;51.476;7.770;2022-11-23T10:00:34;10.60;99.90
30764;DHT22;17497;51.476;7.770;2022-11-23T10:03:02;10.70;99.90
30764;DHT22;17497;51.476;7.770;2022-11-23T10:05:34;10.80;99.90
30764;DHT22;17497;51.476;7.770;2022-11-23T10:08:13;10.70;99.90
30764;DHT22;17497;51.476;7.770;2022-11-23T10:11:23;10.70;99.90
30764;DHT22;17497;51.476;7.770;2022-11-23T10:22:57;10.90;99.90
30764;DHT22;17497;51.476;7.770;2022-11-23T10:25:25;11.10;99.90
30764;DHT22;17497;51.476;7.770;2022-11-23T10:27:59;11.20;99.90
30764;DHT22;17497;51.476;7.770;2022-11-23T10:33:37;11.20;99.90
30764;DHT22;17497;51.476;7.770;2022-11-23T10:36:06;11.40;99.90
30764;DHT22;17497;51.476;7.770;2022-11-23T10:38:35;11.50;99.90
30764;DHT22;17497;51.476;7.770;2022-11-23T10:41:05;11.70;99.90
30764;DHT22;17497;51.476;7.770;2022-11-23T10:48:50;10.80;99.90
30764;DHT22;17497;51.476;7.770;2022-11-23T10:51:29;10.60;99.90
30764;DHT22;17497;51.476;7.770;2022-11-23T10:54:01;10.50;99.90
30764;DHT22;17497;51.476;7.770;2022-11-23T10:56:32;10.60;99.90
30764;DHT22;17497;51.476;7.770;2022-11-23T10:58:59;10.80;99.90
30764;DHT22;17497;51.476;7.770;2022-11-23T11:01:27;11.10;99.90
30764;DHT22;17497;51.476;7.770;2022-11-23T11:04:01;11.20;99.90
30764;DHT22;17497;51.476;7.770;2022-11-23T11:06:31;11.30;99.90
30764;DHT22;17497;51.476;7.770;2022-11-23T11:09:04;11.30;99.90
30764;DHT22;17497;51.476;7.770;2022-11-23T11:11:46;11.30;99.90
30764;DHT22;17497;51.476;7.770;2022-11-23T11:14:18;11.10;99.90
30764;DHT22;17497;51.476;7.770;2022-11-23T11:16:56;10.90;99.90
30764;DHT22;17497;51.476;7.770;2022-11-23T11:19:30;10.80;99.90
30764;DHT22;17497;51.476;7.770;2022-11-23T11:21:59;10.60;99.90
30764;DHT22;17497;51.476;7.770;2022-11-23T11:24:49;10.50;99.90
30764;DHT22;17497;51.476;7.770;2022-11-23T11:27:21;10.50;99.90
30764;DHT22;17497;51.476;7.770;2022-11-23T11:29:54;10.50;99.90
30764;DHT22;17497;51.476;7.770;2022-11-23T11:35:36;10.30;99.90
30764;DHT22;17497;51.476;7.770;2022-11-23T11:40:50;10.20;99.90
30764;DHT22;17497;51.476;7.770;2022-11-23T11:43:36;10.00;99.90
30764;DHT22;17497;51.476;7.770;2022-11-23T11:46:14;10.10;99.90
30764;DHT22;17497;51.476;7.770;2022-11-23T11:49:05;10.20;99.90
30764;DHT22;17497;51.476;7.770;2022-11-23T11:51:44;10.40;99.90
30764;DHT22;17497;51.476;7.770;2022-11-23T11:54:14;10.50;99.90
30764;DHT22;17497;51.476;7.770;2022-11-23T11:56:51;10.60;99.90
30764;DHT22;17497;51.476;7.770;2022-11-23T11:59:52;10.80;99.90
30764;DHT22;17497;51.476;7.770;2022-11-23T12:02:23;11.10;99.90
30764;DHT22;17497;51.476;7.770;2022-11-23T12:10:16;11.40;99.90
30764;DHT22;17497;51.476;7.770;2022-11-23T12:12:47;11.50;99.90
30764;DHT22;17497;51.476;7.770;2022-11-23T12:15:20;11.60;99.90
30764;DHT22;17497;51.476;7.770;2022-11-23T12:24:58;11.60;99.90
30764;DHT22;17497;51.476;7.770;2022-11-23T12:36:39;10.70;99.90
30764;DHT22;17497;51.476;7.770;2022-11-23T12:41:55;10.80;99.90
30764;DHT22;17497;51.476;7.770;2022-11-23T12:50:02;10.90;99.90
30764;DHT22;17497;51.476;7.770;2022-11-23T12:58:15;11.00;99.90
30764;DHT22;17497;51.476;7.770;2022-11-23T13:00:49;11.20;99.90
30764;DHT22;17497;51.476;7.770;2022-11-23T13:03:38;11.50;99.90
30764;DHT22;17497;51.476;7.770;2022-11-23T13:14:40;11.00;99.90
30764;DHT22;17497;51.476;7.770;2022-11-23T13:22:21;10.60;99.90
30764;DHT22;17497;51.476;7.770;2022-11-23T13:29:58;10.70;99.90
30764;DHT22;17497;51.476;7.770;2022-11-23T13:40:28;10.80;99.90
30764;DHT22;17497;51.476;7.770;2022-11-23T13:43:02;10.70;99.90
30764;DHT22;17497;51.476;7.770;2022-11-23T13:45:33;10.70;99.90
30764;DHT22;17497;51.476;7.770;2022-11-23T13:48:04;10.50;99.90
30764;DHT22;17497;51.476;7.770;2022-11-23T13:50:33;10.30;99.90
30764;DHT22;17497;51.476;7.770;2022-11-23T13:53:01;10.30;99.90
30764;DHT22;17497;51.476;7.770;2022-11-23T13:55:33;10.20;99.90
30764;DHT22;17497;51.476;7.770;2022-11-23T14:20:10;9.80;99.90
30764;DHT22;17497;51.476;7.770;2022-11-23T14:34:06;9.40;99.90
30764;DHT22;17497;51.476;7.770;2022-11-23T14:42:25;9.30;99.90
30764;DHT22;17497;51.476;7.770;2022-11-23T14:44:53;9.20;99.90
30764;DHT22;17497;51.476;7.770;2022-11-23T14:47:28;9.20;99.90
30764;DHT22;17497;51.476;7.770;2022-11-23T14:49:56;9.20;99.90
30764;DHT22;17497;51.476;7.770;2022-11-23T14:52:28;9.10;99.90
30764;DHT22;17497;51.476;7.770;2022-11-23T14:54:59;9.00;99.90
30764;DHT22;17497;51.476;7.770;2022-11-23T14:57:33;9.00;99.90
30764;DHT22;17497;51.476;7.770;2022-11-23T15:00:02;9.00;99.90
30764;DHT22;17497;51.476;7.770;2022-11-23T15:02:39;8.90;99.90
30764;DHT22;17497;51.476;7.770;2022-11-23T15:05:19;8.90;99.90
30764;DHT22;17497;51.476;7.770;2022-11-23T15:10:33;8.80;99.90
30764;DHT22;17497;51.476;7.770;2022-11-23T15:13:58;8.80;99.90
30764;DHT22;17497;51.476;7.770;2022-11-23T15:16:05;8.80;99.90
30764;DHT22;17497;51.476;7.770;2022-11-23T15:18:33;8.70;99.90
30764;DHT22;17497;51.476;7.770;2022-11-23T15:23:49;8.60;99.90
30764;DHT22;17497;51.476;7.770;2022-11-23T15:26:34;8.50;99.90
30764;DHT22;17497;51.476;7.770;2022-11-23T15:29:34;8.50;99.90
30764;DHT22;17497;51.476;7.770;2022-11-23T15:32:18;8.40;99.90
30764;DHT22;17497;51.476;7.770;2022-11-23T15:35:09;8.40;99.90
30764;DHT22;17497;51.476;7.770;2022-11-23T15:37:48;8.40;99.90
30764;DHT22;17497;51.476;7.770;2022-11-23T15:40:17;8.40;99.90
30764;DHT22;17497;51.476;7.770;2022-11-23T15:42:47;8.30;99.90
30764;DHT22;17497;51.476;7.770;2022-11-23T15:48:25;8.20;99.90
30764;DHT22;17497;51.476;7.770;2022-11-23T15:50:57;8.20;99.90
30764;DHT22;17497;51.476;7.770;2022-11-23T15:53:27;8.20;99.90
30764;DHT22;17497;51.476;7.770;2022-11-23T15:55:59;8.20;99.90
30764;DHT22;17497;51.476;7.770;2022-11-23T15:58:27;8.20;99.90
30764;DHT22;17497;51.476;7.770;2022-11-23T16:01:02;8.30;99.90
30764;DHT22;17497;51.476;7.770;2022-11-23T16:03:40;8.30;99.90
30764;DHT22;17497;51.476;7.770;2022-11-23T16:08:39;8.30;99.90
30764;DHT22;17497;51.476;7.770;2022-11-23T16:13:47;8.50;99.90
30764;DHT22;17497;51.476;7.770;2022-11-23T16:16:18;8.50;99.90
30764;DHT22;17497;51.476;7.770;2022-11-23T16:18:48;8.50;99.90
30764;DHT22;17497;51.476;7.770;2022-11-23T16:21:18;8.50;99.90
30764;DHT22;17497;51.476;7.770;2022-11-23T16:23:54;8.50;99.90
30764;DHT22;17497;51.476;7.770;2022-11-23T16:26:31;8.50;99.90
30764;DHT22;17497;51.476;7.770;2022-11-23T16:28:59;8.50;99.90
30764;DHT22;17497;51.476;7.770;2022-11-23T16:31:36;8.50;99.90
30764;DHT22;17497;51.476;7.770;2022-11-23T16:34:15;8.60;99.90
30764;DHT22;17497;51.476;7.770;2022-11-23T16:36:42;8.70;99.90
30764;DHT22;17497;51.476;7.770;2022-11-23T16:39:09;8.70;99.90
30764;DHT22;17497;51.476;7.770;2022-11-23T16:41:37;8.70;99.90
30764;DHT22;17497;51.476;7.770;2022-11-23T16:44:03;8.70;99.90
30764;DHT22;17497;51.476;7.770;2022-11-23T16:46:31;8.70;99.90
30764;DHT22;17497;51.476;7.770;2022-11-23T16:48:58;8.80;99.90
30764;DHT22;17497;51.476;7.770;2022-11-23T16:51:25;8.80;99.90
30764;DHT22;17497;51.476;7.770;2022-11-23T16:53:52;8.80;99.90
30764;DHT22;17497;51.476;7.770;2022-11-23T16:56:39;8.70;99.90
30764;DHT22;17497;51.476;7.770;2022-11-23T16:59:12;8.70;99.90
30764;DHT22;17497;51.476;7.770;2022-11-23T17:01:47;8.70;99.90
30764;DHT22;17497;51.476;7.770;2022-11-23T17:04:23;8.70;99.90
30764;DHT22;17497;51.476;7.770;2022-11-23T17:06:50;8.70;99.90
30764;DHT22;17497;51.476;7.770;2022-11-23T17:09:17;8.80;99.90
30764;DHT22;17497;51.476;7.770;2022-11-23T17:11:45;8.70;99.90
30764;DHT22;17497;51.476;7.770;2022-11-23T17:14:14;8.70;99.90
30764;DHT22;17497;51.476;7.770;2022-11-23T17:16:55;8.70;99.90
30764;DHT22;17497;51.476;7.770;2022-11-23T17:19:22;8.70;99.90
30764;DHT22;17497;51.476;7.770;2022-11-23T17:21:49;8.60;99.90
30764;DHT22;17497;51.476;7.770;2022-11-23T17:24:16;8.60;99.90
30764;DHT22;17497;51.476;7.770;2022-11-23T17:26:45;8.50;99.90
30764;DHT22;17497;51.476;7.770;2022-11-23T17:29:14;8.50;99.90
30764;DHT22;17497;51.476;7.770;2022-11-23T17:31:43;8.50;99.90
30764;DHT22;17497;51.476;7.770;2022-11-23T17:34:11;8.60;99.90
30764;DHT22;17497;51.476;7.770;2022-11-23T17:36:38;8.50;99.90
30764;DHT22;17497;51.476;7.770;2022-11-23T17:39:06;8.50;99.90
30764;DHT22;17497;51.476;7.770;2022-11-23T17:41:32;8.40;99.90
30764;DHT22;17497;51.476;7.770;2022-11-23T17:43:59;8.40;99.90
30764;DHT22;17497;51.476;7.770;2022-11-23T17:46:27;8.40;99.90
30764;DHT22;17497;51.476;7.770;2022-11-23T17:48:57;8.40;99.90
30764;DHT22;17497;51.476;7.770;2022-11-23T17:51:24;8.30;99.90
30764;DHT22;17497;51.476;7.770;2022-11-23T17:53:51;8.20;99.90
30764;DHT22;17497;51.476;7.770;2022-11-23T17:56:22;8.20;99.90
30764;DHT22;17497;51.476;7.770;2022-11-23T17:58:51;8.20;99.90
30764;DHT22;17497;51.476;7.770;2022-11-23T18:01:19;8.20;99.90
30764;DHT22;17497;51.476;7.770;2022-11-23T18:03:47;8.20;99.90
30764;DHT22;17497;51.476;7.770;2022-11-23T18:06:21;8.20;99.90
30764;DHT22;17497;51.476;7.770;2022-11-23T18:08:50;8.30;99.90
30764;DHT22;17497;51.476;7.770;2022-11-23T18:11:18;8.30;99.90
30764;DHT22;17497;51.476;7.770;2022-11-23T18:13:44;8.30;99.90
30764;DHT22;17497;51.476;7.770;2022-11-23T18:16:13;8.30;99.90
30764;DHT22;17497;51.476;7.770;2022-11-23T18:18:40;8.30;99.90
30764;DHT22;17497;51.476;7.770;2022-11-23T18:21:06;8.40;99.90
30764;DHT22;17497;51.476;7.770;2022-11-23T18:23:35;8.40;99.90
30764;DHT22;17497;51.476;7.770;2022-11-23T18:26:17;8.40;99.90
30764;DHT22;17497;51.476;7.770;2022-11-23T18:28:44;8.30;99.90
30764;DHT22;17497;51.476;7.770;2022-11-23T18:31:12;8.30;99.90
30764;DHT22;17497;51.476;7.770;2022-11-23T18:33:39;8.20;99.90
30764;DHT22;17497;51.476;7.770;2022-11-23T18:36:06;8.00;99.90
30764;DHT22;17497;51.476;7.770;2022-11-23T18:38:33;7.90;99.90